Time;durP1;ratioP1;P1;durP2;ratioP2;P2;SDS_P1;SDS_P2;PMS_P1;PMS_P2;Temp;Humidity;BMP_temperature;BMP_pressure;BME280_temperature;BME280_humidity;BME280_pressure;Samples;Min_cycle;Max_cycle;Signal;HPM_P1;HPM_P2
2024/02/15 00:00:25;;;;;;;5.38;3.30;;;;;;;11.30;100.00;100766.28;5195242;28;20036;-78
2024/02/15 00:02:58;;;;;;;5.00;3.30;;;;;;;11.34;100.00;100771.34;5195500;28;20119;-78
2024/02/15 00:05:28;;;;;;;5.38;3.47;;;;;;;11.39;100.00;100766.78;5181244;28;20529;-77
2024/02/15 00:07:59;;;;;;;5.88;3.60;;;;;;;11.40;100.00;100762.41;5200551;28;20042;-78
2024/02/15 00:10:29;;;;;;;8.13;3.25;;;;;;;11.38;100.00;100762.47;5175011;28;20036;-77
2024/02/15 00:13:00;;;;;;;4.60;3.05;;;;;;;11.44;100.00;100756.19;5201460;28;20040;-77
2024/02/15 00:15:30;;;;;;;4.40;2.75;;;;;;;11.36;100.00;100759.06;5199117;28;20072;-78
2024/02/15 00:18:01;;;;;;;5.18;2.83;;;;;;;11.36;100.00;100761.69;5178350;28;20032;-77
2024/02/15 00:20:35;;;;;;;5.30;3.03;;;;;;;11.43;100.00;100760.53;5182688;28;20482;-76
2024/02/15 00:23:08;;;;;;;4.33;2.50;;;;;;;11.45;100.00;100761.34;5201108;28;20180;-77
2024/02/15 00:25:39;;;;;;;5.70;3.15;;;;;;;11.45;100.00;100766.56;5201519;28;20036;-77
2024/02/15 00:28:11;;;;;;;6.05;3.33;;;;;;;11.46;100.00;100759.59;5202221;28;20052;-77
2024/02/15 00:30:42;;;;;;;4.88;2.92;;;;;;;11.48;100.00;100757.75;5201377;28;20515;-76
2024/02/15 00:33:12;;;;;;;4.10;2.78;;;;;;;11.54;100.00;100758.41;5204708;28;20036;-78
2024/02/15 00:35:43;;;;;;;6.35;3.08;;;;;;;11.45;100.00;100768.34;5205003;28;20029;-77
2024/02/15 00:38:13;;;;;;;7.05;4.28;;;;;;;11.42;100.00;100763.22;5202378;28;20112;-77
2024/02/15 00:40:43;;;;;;;6.53;3.70;;;;;;;11.42;100.00;100756.22;5200608;28;20520;-75
2024/02/15 00:43:14;;;;;;;8.38;3.60;;;;;;;11.49;100.00;100749.88;5184691;28;20029;-78
2024/02/15 00:45:44;;;;;;;6.57;4.15;;;;;;;11.51;100.00;100752.41;5203965;28;20086;-77
2024/02/15 00:48:14;;;;;;;8.23;4.80;;;;;;;11.43;100.00;100763.16;5210347;28;20033;-77
2024/02/15 00:50:45;;;;;;;7.72;4.07;;;;;;;11.44;100.00;100764.88;5216717;28;20024;-78
2024/02/15 00:53:16;;;;;;;8.95;3.95;;;;;;;11.54;100.00;100752.28;5211417;28;20128;-78
2024/02/15 00:55:46;;;;;;;6.28;3.58;;;;;;;11.48;100.00;100752.53;5211289;28;20035;-78
2024/02/15 00:58:17;;;;;;;5.65;3.47;;;;;;;11.53;100.00;100750.59;5184495;28;20025;-78
2024/02/15 01:00:47;;;;;;;7.43;3.35;;;;;;;11.49;100.00;100755.09;5205287;28;20155;-77
2024/02/15 01:03:17;;;;;;;6.00;3.63;;;;;;;11.53;100.00;100761.94;5207539;28;20029;-77
2024/02/15 01:05:48;;;;;;;6.53;3.67;;;;;;;11.52;100.00;100759.34;5196758;28;20074;-76
2024/02/15 01:08:19;;;;;;;5.13;3.67;;;;;;;11.47;100.00;100771.75;5209821;28;20021;-77
2024/02/15 01:10:49;;;;;;;5.60;3.70;;;;;;;11.49;100.00;100765.56;5205070;28;20037;-78
2024/02/15 01:13:19;;;;;;;5.50;3.60;;;;;;;11.47;100.00;100775.22;5196299;28;20021;-76
2024/02/15 01:15:50;;;;;;;5.35;3.60;;;;;;;11.46;100.00;100776.13;5210779;28;20259;-77
2024/02/15 01:18:20;;;;;;;5.40;3.15;;;;;;;11.47;100.00;100772.59;5186490;28;20087;-77
2024/02/15 01:20:52;;;;;;;6.50;3.60;;;;;;;11.55;100.00;100781.03;5191659;28;20044;-77
2024/02/15 01:23:22;;;;;;;5.93;3.40;;;;;;;11.51;100.00;100773.34;5206913;28;20033;-78
2024/02/15 01:25:52;;;;;;;5.20;3.20;;;;;;;11.62;100.00;100772.06;5207462;28;20028;-77
2024/02/15 01:28:23;;;;;;;4.95;3.17;;;;;;;11.59;100.00;100784.44;5208005;28;20190;-77
2024/02/15 01:30:54;;;;;;;5.05;3.33;;;;;;;11.55;100.00;100767.94;5214458;28;20039;-77
2024/02/15 01:33:24;;;;;;;5.18;3.20;;;;;;;11.51;100.00;100781.19;5211914;28;20031;-75
2024/02/15 01:35:56;;;;;;;4.93;3.15;;;;;;;11.49;100.00;100777.78;5207001;28;20024;-76
2024/02/15 01:38:26;;;;;;;5.20;3.20;;;;;;;11.51;100.00;100760.25;5188856;28;20029;-75
2024/02/15 01:40:56;;;;;;;6.55;3.60;;;;;;;11.43;100.00;100773.63;5209901;28;20025;-75
2024/02/15 01:43:27;;;;;;;6.55;3.28;;;;;;;11.44;100.00;100764.03;5193971;28;20079;-76
2024/02/15 01:46:00;;;;;;;6.07;3.30;;;;;;;11.41;100.00;100767.59;5209447;28;20052;-75
2024/02/15 01:48:30;;;;;;;6.07;3.55;;;;;;;11.42;100.00;100769.31;5190647;28;20029;-76
2024/02/15 01:51:01;;;;;;;5.03;3.35;;;;;;;11.45;100.00;100766.56;5208181;28;20033;-75
2024/02/15 01:53:32;;;;;;;5.53;3.55;;;;;;;11.49;100.00;100764.69;5205754;28;20061;-75
2024/02/15 01:56:03;;;;;;;7.25;4.00;;;;;;;11.45;100.00;100756.09;5207056;28;20029;-75
2024/02/15 01:58:34;;;;;;;8.13;3.80;;;;;;;11.51;100.00;100757.66;5188712;28;20037;-75
2024/02/15 02:01:05;;;;;;;6.35;3.47;;;;;;;11.50;100.00;100759.44;5192976;28;20063;-73
2024/02/15 02:03:35;;;;;;;7.43;3.63;;;;;;;11.54;100.00;100750.53;5207879;28;20064;-76
2024/02/15 02:06:06;;;;;;;8.07;4.25;;;;;;;11.45;100.00;100757.88;5201933;28;20029;-75
2024/02/15 02:08:37;;;;;;;7.57;3.85;;;;;;;11.46;100.00;100744.72;5204411;28;20406;-76
2024/02/15 02:11:07;;;;;;;6.70;3.95;;;;;;;11.42;100.00;100753.59;5211033;28;20033;-75
2024/02/15 02:13:37;;;;;;;6.30;3.70;;;;;;;11.41;100.00;100748.44;5208316;28;20052;-76
2024/02/15 02:16:40;;;;;;;6.40;3.70;;;;;;;11.43;100.00;100744.84;5208386;28;20260;-76
2024/02/15 02:19:10;;;;;;;6.50;3.92;;;;;;;11.45;100.00;100748.25;5160336;28;20099;-76
2024/02/15 02:21:40;;;;;;;5.97;3.60;;;;;;;11.48;100.00;100740.28;5211235;28;20029;-76
2024/02/15 02:24:21;;;;;;;9.10;3.47;;;;;;;11.47;100.00;100745.59;5189244;28;20062;-74
2024/02/15 02:26:52;;;;;;;6.00;3.63;;;;;;;11.58;100.00;100736.47;5190633;28;20060;-74
2024/02/15 02:29:22;;;;;;;6.50;3.47;;;;;;;11.43;100.00;100729.13;5210500;28;20099;-76
2024/02/15 02:31:52;;;;;;;5.57;3.35;;;;;;;11.36;100.00;100732.91;5210238;28;20029;-76
2024/02/15 02:34:24;;;;;;;6.93;3.72;;;;;;;11.37;100.00;100737.22;5210632;28;20061;-76
2024/02/15 02:36:54;;;;;;;5.72;3.67;;;;;;;11.37;100.00;100736.34;5208603;28;20029;-76
2024/02/15 02:39:26;;;;;;;7.65;3.55;;;;;;;11.32;100.00;100731.31;5205301;28;20047;-75
2024/02/15 02:41:58;;;;;;;6.05;3.47;;;;;;;11.37;100.00;100737.22;5206696;28;20060;-75
2024/02/15 02:44:28;;;;;;;5.97;3.55;;;;;;;11.38;100.00;100738.94;5191745;28;20036;-75
2024/02/15 02:46:58;;;;;;;6.85;3.30;;;;;;;11.31;100.00;100745.25;5207382;28;20088;-75
2024/02/15 02:49:29;;;;;;;5.35;3.63;;;;;;;11.45;100.00;100735.16;5200836;28;20029;-75
2024/02/15 02:51:59;;;;;;;6.30;3.90;;;;;;;11.33;100.00;100738.25;5202465;28;20494;-75
2024/02/15 02:54:30;;;;;;;5.10;3.42;;;;;;;11.39;100.00;100738.00;5201417;28;20036;-75
2024/02/15 02:57:00;;;;;;;6.25;3.38;;;;;;;11.38;100.00;100738.94;5206732;28;20434;-76
2024/02/15 02:59:30;;;;;;;6.57;3.28;;;;;;;11.42;100.00;100737.91;5189859;28;20400;-75
2024/02/15 03:02:03;;;;;;;10.13;3.75;;;;;;;11.34;100.00;100744.31;5207502;28;20487;-76
2024/02/15 03:04:33;;;;;;;5.60;3.45;;;;;;;11.32;100.00;100751.38;5203311;28;20149;-74
2024/02/15 03:07:05;;;;;;;5.65;3.28;;;;;;;11.25;100.00;100749.91;5200245;28;20017;-75
2024/02/15 03:09:37;;;;;;;6.53;3.38;;;;;;;11.29;100.00;100757.56;5185310;28;20376;-76
2024/02/15 03:12:09;;;;;;;5.60;2.95;;;;;;;11.30;100.00;100747.97;5206716;28;20037;-75
2024/02/15 03:14:40;;;;;;;4.43;3.00;;;;;;;11.37;100.00;100757.28;5206696;28;20116;-76
2024/02/15 03:17:11;;;;;;;4.93;3.00;;;;;;;11.39;100.00;100758.06;5202619;28;20073;-76
2024/02/15 03:19:41;;;;;;;4.90;3.05;;;;;;;11.36;100.00;100759.06;5202492;28;20065;-75
2024/02/15 03:22:13;;;;;;;4.75;2.90;;;;;;;11.35;100.00;100770.44;5205791;28;20025;-76
2024/02/15 03:24:43;;;;;;;3.97;2.60;;;;;;;11.39;100.00;100765.94;5185988;28;20383;-76
2024/02/15 03:27:14;;;;;;;5.07;2.88;;;;;;;11.41;100.00;100764.13;5204448;28;20033;-75
2024/02/15 03:29:46;;;;;;;3.90;2.60;;;;;;;11.37;100.00;100766.00;5191412;28;20311;-76
2024/02/15 03:32:17;;;;;;;5.35;3.00;;;;;;;11.41;100.00;100762.34;5208875;28;20033;-76
2024/02/15 03:34:47;;;;;;;3.72;2.42;;;;;;;11.43;100.00;100765.78;5208619;28;20021;-74
2024/02/15 03:37:18;;;;;;;6.00;2.75;;;;;;;11.53;100.00;100756.69;5205420;28;20399;-75
2024/02/15 03:39:48;;;;;;;4.50;2.70;;;;;;;11.47;100.00;100763.91;5187677;28;20112;-74
2024/02/15 03:42:18;;;;;;;5.70;2.50;;;;;;;11.54;100.00;100753.16;5202628;28;20029;-76
2024/02/15 03:44:48;;;;;;;3.60;2.10;;;;;;;11.63;100.00;100754.63;5204770;28;20441;-74
2024/02/15 03:47:19;;;;;;;4.25;2.53;;;;;;;11.57;100.00;100767.91;5200562;28;20076;-76
2024/02/15 03:49:49;;;;;;;6.65;2.55;;;;;;;11.56;100.00;100761.84;5204294;28;20026;-75
2024/02/15 03:52:21;;;;;;;4.38;2.40;;;;;;;11.57;100.00;100758.31;5204983;28;20172;-75
2024/02/15 03:54:52;;;;;;;4.72;2.30;;;;;;;11.53;100.00;100767.16;5189419;28;20029;-75
2024/02/15 03:57:23;;;;;;;7.25;2.40;;;;;;;11.44;100.00;100772.72;5206163;28;20034;-75
2024/02/15 03:59:57;;;;;;;3.55;2.13;;;;;;;11.43;100.00;100773.63;5210504;28;20045;-76
2024/02/15 04:02:28;;;;;;;4.97;2.78;;;;;;;11.43;100.00;100765.78;5209032;28;20102;-75
2024/02/15 04:04:58;;;;;;;5.03;2.33;;;;;;;11.47;100.00;100777.84;5211347;28;20060;-76
2024/02/15 04:07:28;;;;;;;5.97;2.47;;;;;;;11.59;100.00;100779.22;5214293;28;20757;-77
2024/02/15 04:10:00;;;;;;;5.20;2.50;;;;;;;11.51;100.00;100779.44;5215648;28;20034;-77
2024/02/15 04:12:31;;;;;;;4.32;2.15;;;;;;;11.49;100.00;100780.41;5215038;28;20071;-77
2024/02/15 04:15:06;;;;;;;9.55;2.47;;;;;;;11.52;100.00;100783.78;5216175;28;20614;-75
2024/02/15 04:17:37;;;;;;;;;;;;;;;11.49;100.00;100778.66;5205667;28;20081;-77
2024/02/15 04:20:09;;;;;;;4.35;1.90;;;;;;;11.50;100.00;100784.72;5217796;28;20047;-77
2024/02/15 04:22:42;;;;;;;6.05;2.53;;;;;;;11.47;100.00;100782.22;5197906;28;20029;-77
2024/02/15 04:25:17;;;;;;;5.55;2.40;;;;;;;11.47;100.00;100777.84;5209836;28;20025;-77
2024/02/15 04:27:48;;;;;;;6.93;3.10;;;;;;;11.51;100.00;100783.81;5214457;28;20486;-77
2024/02/15 04:30:19;;;;;;;3.60;2.30;;;;;;;11.54;100.00;100778.47;5191748;28;20025;-77
2024/02/15 04:32:49;;;;;;;6.07;2.63;;;;;;;11.62;100.00;100779.94;5213726;28;20487;-75
2024/02/15 04:35:20;;;;;;;7.57;2.40;;;;;;;11.64;100.00;100782.50;5199043;28;20036;-77
2024/02/15 04:37:51;;;;;;;3.63;2.10;;;;;;;11.62;100.00;100772.06;5197980;28;20086;-75
2024/02/15 04:40:21;;;;;;;4.90;2.10;;;;;;;11.69;100.00;100777.94;5192762;28;20033;-77
2024/02/15 04:42:52;;;;;;;4.43;1.98;;;;;;;11.77;100.00;100782.00;5211578;28;20547;-77
2024/02/15 04:45:23;;;;;;;5.03;1.98;;;;;;;11.87;100.00;100767.66;5217235;28;20029;-77
2024/02/15 04:47:53;;;;;;;4.65;1.92;;;;;;;11.80;100.00;100776.63;5214296;28;20045;-77
2024/02/15 04:50:25;;;;;;;4.40;1.80;;;;;;;11.70;100.00;100779.66;5203056;28;20037;-77
2024/02/15 04:52:56;;;;;;;4.47;1.90;;;;;;;11.69;100.00;100784.06;5208668;28;20092;-77
2024/02/15 04:55:26;;;;;;;6.38;1.73;;;;;;;11.73;100.00;100783.03;5207788;28;20060;-76
2024/02/15 04:57:57;;;;;;;2.95;1.73;;;;;;;11.69;100.00;100784.06;5206894;28;20508;-77
2024/02/15 05:00:28;;;;;;;3.35;1.73;;;;;;;11.65;100.00;100771.97;5211495;28;20045;-77
2024/02/15 05:02:58;;;;;;;3.13;1.80;;;;;;;11.73;100.00;100783.03;5207486;28;20029;-77
2024/02/15 05:05:29;;;;;;;9.68;2.03;;;;;;;11.68;100.00;100773.63;5200825;28;20051;-77
2024/02/15 05:08:01;;;;;;;4.53;1.90;;;;;;;11.71;100.00;100773.50;5202589;28;20212;-77
2024/02/15 05:10:31;;;;;;;3.90;1.80;;;;;;;11.74;100.00;100771.63;5210110;28;20043;-77
2024/02/15 05:13:01;;;;;;;4.60;1.98;;;;;;;11.76;100.00;100779.44;5207855;28;20021;-77
2024/02/15 05:15:32;;;;;;;3.22;1.92;;;;;;;11.78;100.00;100782.84;5207048;28;20441;-77
2024/02/15 05:18:04;;;;;;;3.13;1.92;;;;;;;11.77;100.00;100782.00;5210686;28;20025;-77
2024/02/15 05:20:34;;;;;;;2.92;1.92;;;;;;;11.79;100.00;100779.31;5208077;28;20033;-77
2024/02/15 05:23:04;;;;;;;3.20;2.00;;;;;;;11.78;100.00;100778.47;5193095;28;20478;-77
2024/02/15 05:25:35;;;;;;;3.05;1.88;;;;;;;11.86;100.00;100773.81;5207423;28;20041;-77
2024/02/15 05:28:07;;;;;;;4.05;2.03;;;;;;;11.78;100.00;100775.84;5188561;28;20552;-77
2024/02/15 05:30:39;;;;;;;2.70;1.73;;;;;;;11.79;100.00;100772.31;5210853;28;20037;-77
2024/02/15 05:33:10;;;;;;;2.88;1.98;;;;;;;11.77;100.00;100787.22;5184887;28;20060;-76
2024/02/15 05:35:41;;;;;;;4.75;1.90;;;;;;;11.80;100.00;100784.50;5204778;28;20028;-77
2024/02/15 05:38:15;;;;;;;3.15;1.95;;;;;;;11.81;100.00;100780.97;5205132;28;20072;-77
2024/02/15 05:40:45;;;;;;;2.22;1.70;;;;;;;11.85;100.00;100784.31;5207722;28;20025;-77
2024/02/15 05:43:16;;;;;;;3.92;2.08;;;;;;;11.80;100.00;100779.25;5214991;28;20032;-77
2024/02/15 05:45:49;;;;;;;3.85;1.77;;;;;;;11.79;100.00;100774.94;5212398;28;20051;-77
2024/02/15 05:48:19;;;;;;;4.15;1.95;;;;;;;11.83;100.00;100771.31;5211497;28;20380;-77
2024/02/15 05:50:49;;;;;;;2.85;1.77;;;;;;;11.88;100.00;100771.09;5210356;28;20032;-77
2024/02/15 05:53:20;;;;;;;3.38;1.90;;;;;;;11.84;100.00;100770.41;5188099;28;20049;-77
2024/02/15 05:55:50;;;;;;;4.50;2.08;;;;;;;11.88;100.00;100761.50;5213442;28;20082;-76
2024/02/15 05:58:20;;;;;;;3.97;1.85;;;;;;;11.91;100.00;100769.25;5207121;28;20029;-76
2024/02/15 06:00:51;;;;;;;5.30;2.13;;;;;;;11.94;100.00;100774.34;5208414;28;20040;-77
2024/02/15 06:03:22;;;;;;;3.10;1.73;;;;;;;11.91;100.00;100771.84;5211189;28;20044;-77
2024/02/15 06:05:57;;;;;;;5.03;1.80;;;;;;;11.82;100.00;100768.72;5212262;28;20029;-77
2024/02/15 06:08:31;;;;;;;2.60;1.70;;;;;;;11.90;100.00;100769.28;5210153;28;20016;-77
2024/02/15 06:11:03;;;;;;;2.80;1.52;;;;;;;11.81;100.00;100767.88;5212523;28;20380;-77
2024/02/15 06:13:34;;;;;;;3.83;1.63;;;;;;;11.79;100.00;100771.47;5207913;28;20033;-76
2024/02/15 06:16:09;;;;;;;2.70;1.85;;;;;;;11.76;100.00;100775.03;5211328;28;20017;-77
2024/02/15 06:18:39;;;;;;;3.65;1.63;;;;;;;11.81;100.00;100773.09;5215928;28;20025;-77
2024/02/15 06:21:09;;;;;;;3.17;1.77;;;;;;;11.79;100.00;100774.94;5208269;28;20703;-77
2024/02/15 06:23:40;;;;;;;2.88;1.70;;;;;;;11.81;100.00;100783.56;5189489;28;20079;-77
2024/02/15 06:26:11;;;;;;;3.42;1.60;;;;;;;11.77;100.00;100782.00;5206909;28;20104;-77
2024/02/15 06:39:58;;;;;;;3.10;1.58;;;;;;;11.96;100.00;100803.13;5206698;28;20078;-77
2024/02/15 06:42:30;;;;;;;2.22;1.45;;;;;;;11.93;100.00;100798.00;5191951;28;20060;-77
2024/02/15 06:45:01;;;;;;;2.83;1.70;;;;;;;11.84;100.00;100800.94;5210214;28;20025;-76
2024/02/15 06:47:31;;;;;;;2.78;1.73;;;;;;;11.90;100.00;100804.19;5209136;28;20028;-77
2024/02/15 06:50:01;;;;;;;3.38;1.67;;;;;;;11.81;100.00;100801.06;5210904;28;20431;-77
2024/02/15 06:52:32;;;;;;;2.30;1.50;;;;;;;11.80;100.00;100800.19;5209951;28;20505;-77
2024/02/15 06:55:02;;;;;;;3.95;1.73;;;;;;;11.89;100.00;100799.88;5209074;28;20108;-77
2024/02/15 06:57:35;;;;;;;5.28;2.08;;;;;;;11.86;100.00;100804.38;5206328;28;20025;-77
2024/02/15 07:00:09;;;;;;;3.33;1.98;;;;;;;11.94;100.00;100800.53;5208792;28;20029;-77
2024/02/15 07:02:40;;;;;;;4.70;2.13;;;;;;;11.92;100.00;100796.31;5200328;28;20037;-76
2024/02/15 07:05:11;;;;;;;4.45;1.98;;;;;;;11.88;100.00;100803.41;5194810;28;20063;-77
2024/02/15 07:07:42;;;;;;;4.55;2.00;;;;;;;11.92;100.00;100798.91;5202070;28;20330;-77
2024/02/15 07:10:16;;;;;;;5.88;2.03;;;;;;;11.95;100.00;100812.72;5184643;28;20030;-76
2024/02/15 07:12:46;;;;;;;5.47;1.80;;;;;;;12.05;100.00;100814.09;5183047;28;20026;-77
2024/02/15 07:15:17;;;;;;;3.58;1.90;;;;;;;12.07;100.00;100812.28;5207524;28;20096;-74
2024/02/15 07:17:48;;;;;;;3.58;1.95;;;;;;;12.09;100.00;100799.97;5200061;28;20123;-77
2024/02/15 07:20:18;;;;;;;3.13;1.80;;;;;;;12.12;100.00;100799.00;5191869;28;20549;-76
2024/02/15 07:22:48;;;;;;;3.05;1.80;;;;;;;12.07;100.00;100798.31;5208912;28;20033;-77
2024/02/15 07:25:19;;;;;;;4.40;2.10;;;;;;;12.19;100.00;100796.09;5208608;28;20100;-76
2024/02/15 07:27:49;;;;;;;3.10;2.00;;;;;;;12.18;100.00;100794.41;5209756;28;20077;-77
2024/02/15 07:30:20;;;;;;;5.45;2.10;;;;;;;12.12;100.00;100799.84;5203832;28;20036;-77
2024/02/15 07:32:50;;;;;;;3.78;1.83;;;;;;;12.16;100.00;100797.97;5208624;28;20030;-77
2024/02/15 07:35:24;;;;;;;4.07;2.13;;;;;;;12.26;100.00;100797.56;5191969;28;20025;-77
2024/02/15 07:37:57;;;;;;;4.43;2.15;;;;;;;12.30;100.00;100795.69;5190208;28;20025;-77
2024/02/15 07:40:28;;;;;;;6.93;1.98;;;;;;;12.34;100.00;100795.50;5213122;28;20035;-77
2024/02/15 07:42:58;;;;;;;4.57;1.95;;;;;;;12.37;100.00;100791.91;5211623;28;20021;-77
2024/02/15 07:45:29;;;;;;;6.13;2.03;;;;;;;12.30;100.00;100798.31;5185913;28;20486;-77
2024/02/15 07:48:00;;;;;;;3.83;1.90;;;;;;;12.37;100.00;100802.38;5204463;28;20017;-77
2024/02/15 07:50:31;;;;;;;3.58;1.80;;;;;;;12.39;100.00;100796.19;5206131;28;20029;-77
2024/02/15 07:53:02;;;;;;;3.88;1.90;;;;;;;12.41;100.00;100801.34;5205167;28;20040;-77
2024/02/15 07:55:32;;;;;;;3.85;1.80;;;;;;;12.40;100.00;100804.88;5204509;28;20067;-77
2024/02/15 07:58:02;;;;;;;3.72;1.80;;;;;;;12.37;100.00;100805.88;5204989;28;20037;-77
2024/02/15 08:00:33;;;;;;;2.47;1.67;;;;;;;12.43;100.00;100795.13;5203901;28;20033;-77
2024/02/15 08:03:04;;;;;;;3.22;2.00;;;;;;;12.43;100.00;100789.06;5189865;28;20116;-77
2024/02/15 08:05:35;;;;;;;3.20;1.70;;;;;;;12.44;100.00;100799.47;5203018;28;20030;-77
2024/02/15 08:08:06;;;;;;;3.10;1.80;;;;;;;12.42;100.00;100796.06;5201362;28;20486;-77
2024/02/15 08:10:37;;;;;;;4.57;2.05;;;;;;;12.42;100.00;100795.19;5200309;28;20034;-76
2024/02/15 08:13:08;;;;;;;4.57;1.90;;;;;;;12.43;100.00;100792.50;5203305;28;20120;-77
2024/02/15 08:15:39;;;;;;;4.50;2.15;;;;;;;12.45;100.00;100787.22;5184853;28;20022;-77
2024/02/15 08:18:12;;;;;;;4.45;1.80;;;;;;;12.46;100.00;100789.75;5204303;28;20104;-77
2024/02/15 08:20:44;;;;;;;5.28;1.58;;;;;;;12.47;100.00;100790.63;5204641;28;20045;-77
2024/02/15 08:23:14;;;;;;;4.20;1.65;;;;;;;12.43;100.00;100789.88;5208821;28;20021;-77
2024/02/15 08:25:45;;;;;;;4.95;2.30;;;;;;;12.51;100.00;100779.97;5206875;28;20398;-77
2024/02/15 08:28:15;;;;;;;4.43;1.83;;;;;;;12.59;100.00;100785.75;5211163;28;20059;-77
2024/02/15 08:30:46;;;;;;;3.78;2.08;;;;;;;12.55;100.00;100776.31;5210309;28;20064;-77
2024/02/15 08:33:19;;;;;;;4.80;2.05;;;;;;;12.60;100.00;100787.44;5210642;28;20043;-77
2024/02/15 08:35:49;;;;;;;4.05;2.20;;;;;;;12.61;100.00;100789.16;5213296;28;20028;-76
2024/02/15 08:38:19;;;;;;;4.57;1.58;;;;;;;12.66;100.00;100783.72;5208616;28;20025;-77
2024/02/15 08:40:50;;;;;;;5.55;1.63;;;;;;;12.73;100.00;100782.56;5194135;28;20029;-77
2024/02/15 08:43:20;;;;;;;4.43;1.67;;;;;;;12.81;100.00;100776.06;5208950;28;20446;-76
2024/02/15 08:45:51;;;;;;;4.10;1.67;;;;;;;12.94;100.00;100769.44;5206970;28;20600;-77
2024/02/15 08:48:22;;;;;;;3.85;1.70;;;;;;;12.91;100.00;100780.03;5203967;28;20087;-77
2024/02/15 08:50:52;;;;;;;4.00;1.80;;;;;;;12.96;100.00;100785.13;5197598;28;20029;-75
2024/02/15 08:53:24;;;;;;;4.35;2.13;;;;;;;13.05;100.00;100780.34;5216899;28;20115;-77
2024/02/15 08:55:54;;;;;;;3.75;1.95;;;;;;;12.99;100.00;100786.69;5211817;28;20033;-76
2024/02/15 08:58:25;;;;;;;5.90;2.40;;;;;;;13.01;100.00;100792.72;5193033;28;20510;-77
2024/02/15 09:00:58;;;;;;;3.92;2.13;;;;;;;13.06;100.00;100785.50;5215375;28;20417;-77
2024/02/15 09:03:28;;;;;;;5.60;2.10;;;;;;;13.16;100.00;100788.59;5192507;28;20043;-77
2024/02/15 09:06:02;;;;;;;3.97;1.98;;;;;;;13.22;100.00;100788.34;5192118;28;20024;-77
2024/02/15 09:08:33;;;;;;;6.00;1.92;;;;;;;13.25;100.00;100782.97;5194057;28;20021;-77
2024/02/15 09:11:03;;;;;;;4.40;2.30;;;;;;;13.26;100.00;100774.19;5191501;28;20105;-76
2024/02/15 09:13:37;;;;;;;5.85;2.10;;;;;;;13.42;100.00;100780.47;5190281;28;20510;-77
2024/02/15 09:16:07;;;;;;;4.82;1.75;;;;;;;13.38;100.00;100782.38;5193502;28;20032;-77
2024/02/15 09:18:39;;;;;;;5.88;2.00;;;;;;;13.50;100.00;100778.34;5194117;28;20029;-77
2024/02/15 09:21:09;;;;;;;5.75;1.60;;;;;;;13.71;100.00;100772.16;5211320;28;20029;-77
2024/02/15 09:23:40;;;;;;;5.32;1.80;;;;;;;13.78;100.00;100776.19;5211671;28;20076;-77
2024/02/15 09:26:10;;;;;;;3.22;1.40;;;;;;;14.06;100.00;100771.41;5194425;28;20060;-77
2024/02/15 09:28:40;;;;;;;2.88;1.33;;;;;;;14.14;100.00;100774.50;5208179;28;20072;-77
2024/02/15 09:31:14;;;;;;;4.68;1.45;;;;;;;14.27;100.00;100773.03;5204188;28;20032;-77
2024/02/15 09:33:45;;;;;;;3.15;1.15;;;;;;;14.42;100.00;100775.78;5185395;28;20069;-76
2024/02/15 09:36:16;;;;;;;7.35;1.70;;;;;;;14.38;100.00;100776.00;5208284;28;20029;-76
2024/02/15 09:38:46;;;;;;;2.63;1.08;;;;;;;14.49;100.00;100773.72;5212794;28;20025;-77
2024/02/15 09:41:17;;;;;;;4.68;1.30;;;;;;;14.59;100.00;100781.06;5210316;28;20032;-76
2024/02/15 09:43:48;;;;;;;2.92;1.10;;;;;;;14.57;100.00;100779.47;5211084;28;20383;-77
2024/02/15 09:46:18;;;;;;;3.85;0.85;;;;;;;14.53;100.00;100780.53;5214673;28;20049;-77
2024/02/15 09:48:51;;;;;;;3.20;1.13;;;;;;;14.59;100.00;100777.63;5208989;28;20454;-75
2024/02/15 09:51:23;;;;;;;4.47;1.20;;;;;;;14.60;100.00;100781.94;5197220;28;20033;-77
2024/02/15 09:53:57;;;;;;;3.30;1.05;;;;;;;14.58;100.00;100778.53;5216073;28;20108;-77
2024/02/15 09:56:28;;;;;;;3.45;1.10;;;;;;;14.57;100.00;100780.31;5192737;28;20108;-77
2024/02/15 09:58:59;;;;;;;2.63;0.93;;;;;;;14.59;100.00;100774.97;5213788;28;20025;-76
2024/02/15 10:01:32;;;;;;;4.40;1.00;;;;;;;14.48;100.00;100780.75;5193776;28;20079;-77
2024/02/15 10:04:06;;;;;;;3.05;1.05;;;;;;;14.51;100.00;100787.63;5213145;28;20098;-77
2024/02/15 10:06:36;;;;;;;5.68;1.20;;;;;;;14.67;100.00;100783.34;5204846;28;20048;-76
2024/02/15 10:09:30;;;;;;;3.95;1.00;;;;;;;14.63;100.00;100779.16;5209611;28;20061;-76
2024/02/15 10:12:01;;;;;;;3.20;1.13;;;;;;;14.52;100.00;100781.44;5207665;28;20421;-76
2024/02/15 10:14:32;;;;;;;2.33;1.10;;;;;;;14.67;100.00;100778.06;5193216;28;20082;-76
2024/02/15 10:17:11;;;;;;;4.18;1.40;;;;;;;14.63;100.00;100785.25;5210811;28;20025;-76
2024/02/15 10:19:43;;;;;;;2.33;1.08;;;;;;;14.67;100.00;100778.94;5208425;28;20029;-76
2024/02/15 10:22:15;;;;;;;3.22;1.00;;;;;;;14.70;100.00;100789.31;5208545;28;21219;-76
2024/02/15 10:24:45;;;;;;;4.65;1.05;;;;;;;14.84;100.00;100782.44;5209114;28;20601;-76
2024/02/15 10:27:23;;;;;;;4.55;1.10;;;;;;;14.69;100.00;100779.72;5211013;28;20021;-77
2024/02/15 10:30:14;;;;;;;5.05;0.93;;;;;;;14.75;100.00;100776.78;5207351;28;20950;-76
2024/02/15 10:32:46;;;;;;;3.20;1.10;;;;;;;14.82;100.00;100777.31;5199676;28;20072;-76
2024/02/15 10:35:20;;;;;;;2.83;1.20;;;;;;;14.80;100.00;100774.75;5199419;28;20299;-76
2024/02/15 10:37:51;;;;;;;2.90;0.88;;;;;;;14.72;100.00;100776.06;5197179;28;20113;-76
2024/02/15 10:40:21;;;;;;;6.18;1.08;;;;;;;14.73;100.00;100785.69;5197416;28;20033;-76
2024/02/15 10:42:52;;;;;;;1.65;0.88;;;;;;;14.71;100.00;100775.22;5199614;28;20025;-76
2024/02/15 10:45:22;;;;;;;1.98;0.90;;;;;;;14.82;100.00;100773.75;5200667;28;20040;-77
2024/02/15 10:47:53;;;;;;;2.20;0.93;;;;;;;14.82;100.00;100771.13;5183081;28;20029;-76
2024/02/15 10:50:24;;;;;;;2.08;0.90;;;;;;;14.92;100.00;100767.13;5198586;28;20961;-76
2024/02/15 10:52:57;;;;;;;1.55;0.70;;;;;;;14.82;100.00;100768.50;5206404;28;20033;-76
2024/02/15 10:55:56;;;;;;;2.65;0.95;;;;;;;14.83;100.00;100775.47;5203452;28;20032;-76
2024/02/15 10:58:34;;;;;;;6.55;0.90;;;;;;;14.86;100.00;100766.56;5205309;28;20051;-76
2024/02/15 11:01:10;;;;;;;1.88;0.80;;;;;;;14.86;100.00;100777.09;5203671;28;20437;-76
2024/02/15 11:03:53;;;;;;;2.83;0.80;;;;;;;14.82;100.00;100766.81;5210338;28;20039;-76
2024/02/15 11:06:26;;;;;;;4.57;1.08;;;;;;;14.76;100.00;100778.47;5210260;28;20060;-76
2024/02/15 11:08:57;;;;;;;6.20;1.23;;;;;;;14.72;100.00;100776.06;5202482;28;20033;-76
2024/02/15 11:11:29;;;;;;;1.90;0.80;;;;;;;14.69;100.00;100776.22;5182931;28;20321;-77
2024/02/15 11:14:25;;;;;;;3.63;0.80;;;;;;;14.57;100.00;100771.56;5203930;28;20029;-76
2024/02/15 11:17:02;;;;;;;4.05;1.23;;;;;;;14.55;100.00;100778.66;5207742;28;20256;-75
2024/02/15 11:19:35;;;;;;;2.45;0.77;;;;;;;14.56;100.00;100775.13;5211572;28;20060;-76
2024/02/15 11:22:10;;;;;;;4.60;1.20;;;;;;;14.47;100.00;100767.69;5207626;28;20568;-76
2024/02/15 11:24:52;;;;;;;2.42;0.77;;;;;;;14.42;100.00;100773.16;5192687;28;20032;-76
2024/02/15 11:27:30;;;;;;;1.63;0.80;;;;;;;14.52;100.00;100768.28;5192165;28;20068;-76
2024/02/15 11:30:09;;;;;;;4.15;1.02;;;;;;;14.52;100.00;100769.16;5210620;28;20430;-76
2024/02/15 11:32:50;;;;;;;2.00;0.90;;;;;;;14.49;100.00;100768.44;5184356;28;20225;-76
2024/02/15 11:35:22;;;;;;;1.75;1.00;;;;;;;14.61;100.00;100762.59;5197908;28;20075;-76
2024/02/15 11:37:57;;;;;;;2.50;0.90;;;;;;;14.53;100.00;100756.84;5190744;28;20036;-76
2024/02/15 11:40:43;;;;;;;5.05;1.50;;;;;;;14.47;100.00;100754.53;5211192;28;20048;-76
2024/02/15 11:43:45;;;;;;;3.80;1.13;;;;;;;14.39;100.00;100756.69;5210256;28;20025;-76
2024/02/15 11:46:19;;;;;;;2.72;1.10;;;;;;;14.38;100.00;100762.84;5208976;28;20574;-74
2024/02/15 11:48:55;;;;;;;3.63;0.95;;;;;;;14.35;100.00;100755.97;5209047;28;20025;-77